sensor_id;sensor_type;location;lat;lon;timestamp;temperature;humidity
44277;DHT22;29973;43.742;1.236;2023-01-10T00:01:25;7.10;99.90
44277;DHT22;29973;43.742;1.236;2023-01-10T00:04:38;7.10;99.90
44277;DHT22;29973;43.742;1.236;2023-01-10T00:10:41;7.20;99.90
44277;DHT22;29973;43.742;1.236;2023-01-10T00:13:58;7.20;99.90
44277;DHT22;29973;43.742;1.236;2023-01-10T00:37:59;7.50;99.90
44277;DHT22;29973;43.742;1.236;2023-01-10T00:44:00;7.50;99.90
44277;DHT22;29973;43.742;1.236;2023-01-10T00:56:54;7.60;99.90
44277;DHT22;29973;43.742;1.236;2023-01-10T00:59:53;7.70;99.90
44277;DHT22;29973;43.742;1.236;2023-01-10T01:07:07;7.70;99.90
44277;DHT22;29973;43.742;1.236;2023-01-10T01:20:05;7.30;99.90
44277;DHT22;29973;43.742;1.236;2023-01-10T01:27:21;7.50;99.90
44277;DHT22;29973;43.742;1.236;2023-01-10T01:30:15;7.50;99.90
44277;DHT22;29973;43.742;1.236;2023-01-10T02:43:21;7.30;99.90
44277;DHT22;29973;43.742;1.236;2023-01-10T03:23:52;6.60;99.90
44277;DHT22;29973;43.742;1.236;2023-01-10T03:33:15;6.70;99.90
44277;DHT22;29973;43.742;1.236;2023-01-10T03:42:35;6.50;99.90
44277;DHT22;29973;43.742;1.236;2023-01-10T03:49:26;5.90;99.90
44277;DHT22;29973;43.742;1.236;2023-01-10T04:03:01;5.30;99.90
44277;DHT22;29973;43.742;1.236;2023-01-10T04:14:07;4.80;99.90
44277;DHT22;29973;43.742;1.236;2023-01-10T04:17:02;5.00;99.90
44277;DHT22;29973;43.742;1.236;2023-01-10T04:19:40;5.00;99.90
44277;DHT22;29973;43.742;1.236;2023-01-10T04:26:01;4.90;99.90
44277;DHT22;29973;43.742;1.236;2023-01-10T04:36:35;4.80;99.90
44277;DHT22;29973;43.742;1.236;2023-01-10T04:39:43;4.80;99.90
44277;DHT22;29973;43.742;1.236;2023-01-10T04:42:39;4.80;99.90
44277;DHT22;29973;43.742;1.236;2023-01-10T04:45:09;4.80;99.90
44277;DHT22;29973;43.742;1.236;2023-01-10T04:52:04;4.80;99.90
44277;DHT22;29973;43.742;1.236;2023-01-10T04:54:58;4.90;99.90
44277;DHT22;29973;43.742;1.236;2023-01-10T04:57:50;5.10;99.90
44277;DHT22;29973;43.742;1.236;2023-01-10T05:01:05;5.20;99.90
44277;DHT22;29973;43.742;1.236;2023-01-10T05:06:58;5.30;99.90
44277;DHT22;29973;43.742;1.236;2023-01-10T05:12:33;5.40;99.90
44277;DHT22;29973;43.742;1.236;2023-01-10T05:22:08;5.20;99.90
44277;DHT22;29973;43.742;1.236;2023-01-10T05:28:07;5.10;99.90
44277;DHT22;29973;43.742;1.236;2023-01-10T05:30:49;5.10;99.90
44277;DHT22;29973;43.742;1.236;2023-01-10T05:33:53;5.10;99.90
44277;DHT22;29973;43.742;1.236;2023-01-10T05:40:06;5.20;99.90
44277;DHT22;29973;43.742;1.236;2023-01-10T05:43:09;5.40;99.90
44277;DHT22;29973;43.742;1.236;2023-01-10T05:49:44;5.50;99.90
44277;DHT22;29973;43.742;1.236;2023-01-10T05:52:21;5.50;99.90
44277;DHT22;29973;43.742;1.236;2023-01-10T05:55:33;5.50;99.90
44277;DHT22;29973;43.742;1.236;2023-01-10T06:04:50;5.60;99.90
44277;DHT22;29973;43.742;1.236;2023-01-10T06:08:10;5.60;99.90
44277;DHT22;29973;43.742;1.236;2023-01-10T06:17:19;5.50;99.90
44277;DHT22;29973;43.742;1.236;2023-01-10T06:30:46;5.80;99.90
44277;DHT22;29973;43.742;1.236;2023-01-10T06:33:35;5.60;99.90
44277;DHT22;29973;43.742;1.236;2023-01-10T06:39:13;5.60;99.90
44277;DHT22;29973;43.742;1.236;2023-01-10T06:41:45;5.60;99.90
44277;DHT22;29973;43.742;1.236;2023-01-10T06:44:18;5.60;99.90
44277;DHT22;29973;43.742;1.236;2023-01-10T06:46:49;5.60;99.90
44277;DHT22;29973;43.742;1.236;2023-01-10T06:49:39;5.50;99.90
44277;DHT22;29973;43.742;1.236;2023-01-10T06:52:13;5.60;99.90
44277;DHT22;29973;43.742;1.236;2023-01-10T06:54:59;5.60;99.90
44277;DHT22;29973;43.742;1.236;2023-01-10T06:57:32;5.60;99.90
44277;DHT22;29973;43.742;1.236;2023-01-10T07:00:07;5.60;99.90
44277;DHT22;29973;43.742;1.236;2023-01-10T07:02:36;5.70;99.90
44277;DHT22;29973;43.742;1.236;2023-01-10T07:05:02;5.70;99.90
44277;DHT22;29973;43.742;1.236;2023-01-10T07:07:31;5.70;99.90
44277;DHT22;29973;43.742;1.236;2023-01-10T07:10:13;5.80;99.90
44277;DHT22;29973;43.742;1.236;2023-01-10T07:12:49;5.70;99.90
44277;DHT22;29973;43.742;1.236;2023-01-10T07:15:20;5.70;99.90
44277;DHT22;29973;43.742;1.236;2023-01-10T07:17:57;5.70;99.90
44277;DHT22;29973;43.742;1.236;2023-01-10T07:20:45;5.80;99.90
44277;DHT22;29973;43.742;1.236;2023-01-10T07:23:13;5.70;99.90
44277;DHT22;29973;43.742;1.236;2023-01-10T07:26:04;5.60;99.90
44277;DHT22;29973;43.742;1.236;2023-01-10T07:28:31;5.50;99.90
44277;DHT22;29973;43.742;1.236;2023-01-10T07:31:00;5.50;99.90
44277;DHT22;29973;43.742;1.236;2023-01-10T07:33:29;5.60;99.90
44277;DHT22;29973;43.742;1.236;2023-01-10T07:36:04;5.70;99.90
44277;DHT22;29973;43.742;1.236;2023-01-10T07:38:37;5.70;99.90
44277;DHT22;29973;43.742;1.236;2023-01-10T07:41:07;5.70;99.90
44277;DHT22;29973;43.742;1.236;2023-01-10T07:43:34;5.80;99.90
44277;DHT22;29973;43.742;1.236;2023-01-10T07:46:09;5.80;99.90
44277;DHT22;29973;43.742;1.236;2023-01-10T07:48:43;5.90;99.90
44277;DHT22;29973;43.742;1.236;2023-01-10T07:51:13;5.90;99.90
44277;DHT22;29973;43.742;1.236;2023-01-10T07:53:43;6.00;99.90
44277;DHT22;29973;43.742;1.236;2023-01-10T07:56:19;6.00;99.90
44277;DHT22;29973;43.742;1.236;2023-01-10T07:58:58;6.10;99.90
44277;DHT22;29973;43.742;1.236;2023-01-10T08:01:26;6.30;99.90
44277;DHT22;29973;43.742;1.236;2023-01-10T08:03:57;6.30;99.90
44277;DHT22;29973;43.742;1.236;2023-01-10T08:06:26;6.30;99.90
44277;DHT22;29973;43.742;1.236;2023-01-10T08:11:58;6.40;99.90
44277;DHT22;29973;43.742;1.236;2023-01-10T08:14:27;6.50;99.90
44277;DHT22;29973;43.742;1.236;2023-01-10T08:17:00;6.60;99.90
44277;DHT22;29973;43.742;1.236;2023-01-10T08:19:27;6.70;99.90
44277;DHT22;29973;43.742;1.236;2023-01-10T08:21:56;6.80;99.90
44277;DHT22;29973;43.742;1.236;2023-01-10T08:24:23;6.90;99.90
44277;DHT22;29973;43.742;1.236;2023-01-10T08:26:49;7.10;99.90
44277;DHT22;29973;43.742;1.236;2023-01-10T08:29:15;7.20;99.90
44277;DHT22;29973;43.742;1.236;2023-01-10T08:31:45;7.40;99.90
44277;DHT22;29973;43.742;1.236;2023-01-10T08:34:17;7.50;99.90
44277;DHT22;29973;43.742;1.236;2023-01-10T08:36:43;7.60;99.90
44277;DHT22;29973;43.742;1.236;2023-01-10T08:39:11;7.70;99.90
44277;DHT22;29973;43.742;1.236;2023-01-10T08:41:38;7.70;99.90
44277;DHT22;29973;43.742;1.236;2023-01-10T08:44:05;7.80;99.90
44277;DHT22;29973;43.742;1.236;2023-01-10T08:46:32;7.80;99.90
44277;DHT22;29973;43.742;1.236;2023-01-10T08:49:10;7.90;99.90
44277;DHT22;29973;43.742;1.236;2023-01-10T08:51:36;8.00;99.90
44277;DHT22;29973;43.742;1.236;2023-01-10T08:54:02;8.10;99.90
44277;DHT22;29973;43.742;1.236;2023-01-10T08:56:29;8.00;99.90
44277;DHT22;29973;43.742;1.236;2023-01-10T08:58:55;8.00;99.90
44277;DHT22;29973;43.742;1.236;2023-01-10T09:01:24;8.00;99.90
44277;DHT22;29973;43.742;1.236;2023-01-10T09:03:50;8.20;99.90
44277;DHT22;29973;43.742;1.236;2023-01-10T09:06:17;8.40;99.90
44277;DHT22;29973;43.742;1.236;2023-01-10T09:08:43;8.40;99.90
44277;DHT22;29973;43.742;1.236;2023-01-10T09:11:12;8.60;99.90
44277;DHT22;29973;43.742;1.236;2023-01-10T09:13:39;8.80;99.90
44277;DHT22;29973;43.742;1.236;2023-01-10T09:16:08;10.00;99.90
44277;DHT22;29973;43.742;1.236;2023-01-10T09:18:34;10.70;99.90
44277;DHT22;29973;43.742;1.236;2023-01-10T09:21:01;11.60;99.90
44277;DHT22;29973;43.742;1.236;2023-01-10T09:23:31;11.70;99.90
44277;DHT22;29973;43.742;1.236;2023-01-10T09:26:18;11.50;99.90
44277;DHT22;29973;43.742;1.236;2023-01-10T09:28:44;11.60;99.90
44277;DHT22;29973;43.742;1.236;2023-01-10T09:31:14;12.20;99.90
44277;DHT22;29973;43.742;1.236;2023-01-10T09:33:42;12.20;99.90
44277;DHT22;29973;43.742;1.236;2023-01-10T09:36:09;12.40;99.90
44277;DHT22;29973;43.742;1.236;2023-01-10T09:38:38;13.70;99.90
44277;DHT22;29973;43.742;1.236;2023-01-10T10:17:22;14.20;99.90
44277;DHT22;29973;43.742;1.236;2023-01-10T10:22:54;14.00;99.90
44277;DHT22;29973;43.742;1.236;2023-01-10T10:25:40;14.00;99.90
44277;DHT22;29973;43.742;1.236;2023-01-10T10:34:42;16.80;99.90
44277;DHT22;29973;43.742;1.236;2023-01-10T10:39:24;16.00;99.90
44277;DHT22;29973;43.742;1.236;2023-01-10T10:41:54;15.50;99.90
44277;DHT22;29973;43.742;1.236;2023-01-10T10:44:39;15.90;99.90
44277;DHT22;29973;43.742;1.236;2023-01-10T10:47:15;17.20;99.90
44277;DHT22;29973;43.742;1.236;2023-01-10T10:52:37;16.70;99.90
44277;DHT22;29973;43.742;1.236;2023-01-10T10:55:05;17.40;99.90
44277;DHT22;29973;43.742;1.236;2023-01-10T10:57:35;18.00;99.90
44277;DHT22;29973;43.742;1.236;2023-01-10T11:00:04;18.70;99.90
44277;DHT22;29973;43.742;1.236;2023-01-10T11:02:39;18.40;99.90
44277;DHT22;29973;43.742;1.236;2023-01-10T11:05:35;16.90;99.90
44277;DHT22;29973;43.742;1.236;2023-01-10T11:08:03;18.60;99.90
44277;DHT22;29973;43.742;1.236;2023-01-10T11:10:39;17.50;99.90
44277;DHT22;29973;43.742;1.236;2023-01-10T11:15:43;17.40;99.90
44277;DHT22;29973;43.742;1.236;2023-01-10T11:18:21;17.20;99.90
44277;DHT22;29973;43.742;1.236;2023-01-10T11:23:24;18.20;99.90
44277;DHT22;29973;43.742;1.236;2023-01-10T11:25:52;16.60;99.90
44277;DHT22;29973;43.742;1.236;2023-01-10T11:28:20;15.70;99.90
44277;DHT22;29973;43.742;1.236;2023-01-10T11:30:49;17.00;99.90
44277;DHT22;29973;43.742;1.236;2023-01-10T11:33:24;17.90;99.90
44277;DHT22;29973;43.742;1.236;2023-01-10T11:36:01;18.00;99.90
44277;DHT22;29973;43.742;1.236;2023-01-10T11:38:28;17.50;99.90
44277;DHT22;29973;43.742;1.236;2023-01-10T11:41:04;15.50;99.90
44277;DHT22;29973;43.742;1.236;2023-01-10T11:43:39;15.60;99.90
44277;DHT22;29973;43.742;1.236;2023-01-10T11:46:20;16.10;99.90
44277;DHT22;29973;43.742;1.236;2023-01-10T11:51:22;15.70;99.90
44277;DHT22;29973;43.742;1.236;2023-01-10T11:54:02;17.10;99.90
44277;DHT22;29973;43.742;1.236;2023-01-10T11:56:34;17.40;99.90
44277;DHT22;29973;43.742;1.236;2023-01-10T11:59:13;15.20;99.90
44277;DHT22;29973;43.742;1.236;2023-01-10T12:01:44;14.10;99.90
44277;DHT22;29973;43.742;1.236;2023-01-10T12:04:16;15.90;99.90
44277;DHT22;29973;43.742;1.236;2023-01-10T12:06:47;16.80;99.90
44277;DHT22;29973;43.742;1.236;2023-01-10T12:09:42;16.20;99.90
44277;DHT22;29973;43.742;1.236;2023-01-10T12:14:44;15.30;99.90
44277;DHT22;29973;43.742;1.236;2023-01-10T12:17:19;15.50;99.90
44277;DHT22;29973;43.742;1.236;2023-01-10T12:19:45;16.40;99.90
44277;DHT22;29973;43.742;1.236;2023-01-10T12:22:14;18.10;99.90
44277;DHT22;29973;43.742;1.236;2023-01-10T12:24:43;18.20;99.90
44277;DHT22;29973;43.742;1.236;2023-01-10T12:27:14;17.40;99.90
44277;DHT22;29973;43.742;1.236;2023-01-10T12:30:02;15.80;99.90
44277;DHT22;29973;43.742;1.236;2023-01-10T12:32:35;16.10;99.90
44277;DHT22;29973;43.742;1.236;2023-01-10T12:35:06;16.00;99.90
44277;DHT22;29973;43.742;1.236;2023-01-10T12:37:54;15.00;99.90
44277;DHT22;29973;43.742;1.236;2023-01-10T12:40:41;14.90;99.90
44277;DHT22;29973;43.742;1.236;2023-01-10T12:46:13;18.40;99.90
44277;DHT22;29973;43.742;1.236;2023-01-10T12:51:24;21.10;99.90
44277;DHT22;29973;43.742;1.236;2023-01-10T12:54:17;19.70;99.90
44277;DHT22;29973;43.742;1.236;2023-01-10T12:56:46;21.20;97.40
44277;DHT22;29973;43.742;1.236;2023-01-10T12:59:47;20.00;99.30
44277;DHT22;29973;43.742;1.236;2023-01-10T13:02:20;20.80;98.80
44277;DHT22;29973;43.742;1.236;2023-01-10T13:04:54;22.70;94.50
44277;DHT22;29973;43.742;1.236;2023-01-10T13:07:22;24.10;92.00
44277;DHT22;29973;43.742;1.236;2023-01-10T13:09:49;21.40;90.10
44277;DHT22;29973;43.742;1.236;2023-01-10T13:12:35;23.50;87.00
44277;DHT22;29973;43.742;1.236;2023-01-10T13:16:01;23.80;88.40
44277;DHT22;29973;43.742;1.236;2023-01-10T13:18:28;24.20;81.30
44277;DHT22;29973;43.742;1.236;2023-01-10T13:23:38;20.70;87.80
44277;DHT22;29973;43.742;1.236;2023-01-10T13:26:10;21.30;87.20
44277;DHT22;29973;43.742;1.236;2023-01-10T13:28:39;22.30;86.80
44277;DHT22;29973;43.742;1.236;2023-01-10T13:31:31;20.80;85.50
44277;DHT22;29973;43.742;1.236;2023-01-10T13:34:01;21.70;86.70
44277;DHT22;29973;43.742;1.236;2023-01-10T13:39:44;21.50;89.30
44277;DHT22;29973;43.742;1.236;2023-01-10T13:42:33;23.30;81.10
44277;DHT22;29973;43.742;1.236;2023-01-10T13:45:23;21.50;75.70
44277;DHT22;29973;43.742;1.236;2023-01-10T14:00:49;22.70;77.40
44277;DHT22;29973;43.742;1.236;2023-01-10T14:09:01;23.00;77.70
44277;DHT22;29973;43.742;1.236;2023-01-10T14:11:50;21.00;82.90
44277;DHT22;29973;43.742;1.236;2023-01-10T14:14:38;22.50;79.90
44277;DHT22;29973;43.742;1.236;2023-01-10T14:19:48;22.90;74.10
44277;DHT22;29973;43.742;1.236;2023-01-10T14:22:30;23.60;73.70
44277;DHT22;29973;43.742;1.236;2023-01-10T14:25:00;24.20;70.70
44277;DHT22;29973;43.742;1.236;2023-01-10T14:27:36;23.70;69.60
44277;DHT22;29973;43.742;1.236;2023-01-10T14:30:07;22.30;76.10
44277;DHT22;29973;43.742;1.236;2023-01-10T14:32:40;20.50;80.00
44277;DHT22;29973;43.742;1.236;2023-01-10T14:35:13;21.20;78.80
44277;DHT22;29973;43.742;1.236;2023-01-10T14:37:52;20.70;80.50
44277;DHT22;29973;43.742;1.236;2023-01-10T14:40:25;21.90;78.80
44277;DHT22;29973;43.742;1.236;2023-01-10T14:42:52;22.40;78.70
44277;DHT22;29973;43.742;1.236;2023-01-10T14:45:30;21.40;79.70
44277;DHT22;29973;43.742;1.236;2023-01-10T14:47:57;21.50;80.20
44277;DHT22;29973;43.742;1.236;2023-01-10T14:50:29;23.20;76.10
44277;DHT22;29973;43.742;1.236;2023-01-10T14:52:58;23.10;76.60
44277;DHT22;29973;43.742;1.236;2023-01-10T14:55:24;21.90;80.30
44277;DHT22;29973;43.742;1.236;2023-01-10T14:58:00;20.90;83.50
44277;DHT22;29973;43.742;1.236;2023-01-10T15:00:31;20.70;85.70
44277;DHT22;29973;43.742;1.236;2023-01-10T15:02:59;20.40;84.70
44277;DHT22;29973;43.742;1.236;2023-01-10T15:05:29;20.20;85.10
44277;DHT22;29973;43.742;1.236;2023-01-10T15:08:14;21.10;85.60
44277;DHT22;29973;43.742;1.236;2023-01-10T15:10:42;21.00;83.20
44277;DHT22;29973;43.742;1.236;2023-01-10T15:13:13;20.40;83.50
44277;DHT22;29973;43.742;1.236;2023-01-10T15:15:40;20.40;86.50
44277;DHT22;29973;43.742;1.236;2023-01-10T15:20:49;19.50;88.30
44277;DHT22;29973;43.742;1.236;2023-01-10T15:23:14;20.00;86.90
44277;DHT22;29973;43.742;1.236;2023-01-10T15:25:41;19.90;88.60
44277;DHT22;29973;43.742;1.236;2023-01-10T15:28:16;18.70;90.80
44277;DHT22;29973;43.742;1.236;2023-01-10T15:30:44;17.50;92.30
44277;DHT22;29973;43.742;1.236;2023-01-10T15:33:15;16.80;95.60
44277;DHT22;29973;43.742;1.236;2023-01-10T15:35:42;16.90;93.60
44277;DHT22;29973;43.742;1.236;2023-01-10T15:38:18;16.90;94.00
44277;DHT22;29973;43.742;1.236;2023-01-10T15:40:57;16.30;97.40
44277;DHT22;29973;43.742;1.236;2023-01-10T15:43:26;15.00;98.60
44277;DHT22;29973;43.742;1.236;2023-01-10T15:45:54;14.20;99.90
44277;DHT22;29973;43.742;1.236;2023-01-10T15:48:33;13.40;99.90
44277;DHT22;29973;43.742;1.236;2023-01-10T15:51:14;12.80;99.90
44277;DHT22;29973;43.742;1.236;2023-01-10T15:53:51;12.60;99.90
44277;DHT22;29973;43.742;1.236;2023-01-10T15:56:20;12.20;99.90
44277;DHT22;29973;43.742;1.236;2023-01-10T15:58:47;11.70;99.90
44277;DHT22;29973;43.742;1.236;2023-01-10T16:01:14;11.50;99.90
44277;DHT22;29973;43.742;1.236;2023-01-10T16:03:50;11.30;99.90
44277;DHT22;29973;43.742;1.236;2023-01-10T16:06:26;11.10;99.90
44277;DHT22;29973;43.742;1.236;2023-01-10T16:08:55;10.80;99.90
44277;DHT22;29973;43.742;1.236;2023-01-10T16:14:38;10.60;99.90
44277;DHT22;29973;43.742;1.236;2023-01-10T16:17:04;10.60;99.90
44277;DHT22;29973;43.742;1.236;2023-01-10T16:19:30;10.50;99.90
44277;DHT22;29973;43.742;1.236;2023-01-10T16:21:57;10.30;99.90
44277;DHT22;29973;43.742;1.236;2023-01-10T16:26:51;10.10;99.90
44277;DHT22;29973;43.742;1.236;2023-01-10T16:29:17;9.90;99.90
44277;DHT22;29973;43.742;1.236;2023-01-10T16:31:45;9.70;99.90
44277;DHT22;29973;43.742;1.236;2023-01-10T16:34:11;9.50;99.90
44277;DHT22;29973;43.742;1.236;2023-01-10T16:36:37;9.20;99.90
44277;DHT22;29973;43.742;1.236;2023-01-10T17:05:29;7.70;99.90
44277;DHT22;29973;43.742;1.236;2023-01-10T17:08:03;7.70;99.90
44277;DHT22;29973;43.742;1.236;2023-01-10T17:10:29;7.70;99.90
44277;DHT22;29973;43.742;1.236;2023-01-10T17:12:57;7.70;99.90
44277;DHT22;29973;43.742;1.236;2023-01-10T17:15:26;7.70;99.90
44277;DHT22;29973;43.742;1.236;2023-01-10T17:17:54;7.70;99.90
44277;DHT22;29973;43.742;1.236;2023-01-10T17:20:26;7.50;99.90
44277;DHT22;29973;43.742;1.236;2023-01-10T17:23:02;7.40;99.90
44277;DHT22;29973;43.742;1.236;2023-01-10T17:25:28;7.40;99.90
44277;DHT22;29973;43.742;1.236;2023-01-10T17:27:55;7.30;99.90
44277;DHT22;29973;43.742;1.236;2023-01-10T17:30:23;7.20;99.90
44277;DHT22;29973;43.742;1.236;2023-01-10T17:32:50;7.10;99.90
44277;DHT22;29973;43.742;1.236;2023-01-10T17:35:30;7.20;99.90
44277;DHT22;29973;43.742;1.236;2023-01-10T17:37:58;7.10;99.90
44277;DHT22;29973;43.742;1.236;2023-01-10T17:40:41;7.10;99.90
44277;DHT22;29973;43.742;1.236;2023-01-10T17:43:10;7.10;99.90
44277;DHT22;29973;43.742;1.236;2023-01-10T17:45:42;7.00;99.90
44277;DHT22;29973;43.742;1.236;2023-01-10T17:48:13;6.90;99.90
44277;DHT22;29973;43.742;1.236;2023-01-10T17:50:45;6.80;99.90
44277;DHT22;29973;43.742;1.236;2023-01-10T17:56:57;6.80;99.90
44277;DHT22;29973;43.742;1.236;2023-01-10T18:00:02;6.70;99.90
44277;DHT22;29973;43.742;1.236;2023-01-10T18:02:55;6.80;99.90
44277;DHT22;29973;43.742;1.236;2023-01-10T18:05:56;6.70;99.90
44277;DHT22;29973;43.742;1.236;2023-01-10T18:08:37;6.70;99.90
44277;DHT22;29973;43.742;1.236;2023-01-10T18:11:16;6.50;99.90
44277;DHT22;29973;43.742;1.236;2023-01-10T18:13:44;6.40;99.90
44277;DHT22;29973;43.742;1.236;2023-01-10T18:16:10;6.40;99.90
44277;DHT22;29973;43.742;1.236;2023-01-10T18:18:35;6.40;99.90
44277;DHT22;29973;43.742;1.236;2023-01-10T18:21:01;6.40;99.90
44277;DHT22;29973;43.742;1.236;2023-01-10T18:23:30;6.40;99.90
44277;DHT22;29973;43.742;1.236;2023-01-10T18:26:01;6.30;99.90
44277;DHT22;29973;43.742;1.236;2023-01-10T18:28:34;6.20;99.90
44277;DHT22;29973;43.742;1.236;2023-01-10T18:31:05;6.20;99.90
44277;DHT22;29973;43.742;1.236;2023-01-10T18:33:31;6.20;99.90
44277;DHT22;29973;43.742;1.236;2023-01-10T18:35:57;6.20;99.90
44277;DHT22;29973;43.742;1.236;2023-01-10T18:38:23;6.10;99.90
44277;DHT22;29973;43.742;1.236;2023-01-10T18:40:52;6.00;99.90
44277;DHT22;29973;43.742;1.236;2023-01-10T18:43:18;6.10;99.90
44277;DHT22;29973;43.742;1.236;2023-01-10T18:45:45;6.10;99.90
44277;DHT22;29973;43.742;1.236;2023-01-10T18:48:11;6.00;99.90
44277;DHT22;29973;43.742;1.236;2023-01-10T18:50:38;5.90;99.90
44277;DHT22;29973;43.742;1.236;2023-01-10T18:53:05;5.80;99.90
44277;DHT22;29973;43.742;1.236;2023-01-10T18:55:31;5.80;99.90
44277;DHT22;29973;43.742;1.236;2023-01-10T18:57:56;5.80;99.90
44277;DHT22;29973;43.742;1.236;2023-01-10T19:00:22;5.80;99.90
44277;DHT22;29973;43.742;1.236;2023-01-10T19:02:48;5.80;99.90
44277;DHT22;29973;43.742;1.236;2023-01-10T19:05:14;5.80;99.90
44277;DHT22;29973;43.742;1.236;2023-01-10T19:07:40;5.60;99.90
44277;DHT22;29973;43.742;1.236;2023-01-10T19:10:07;5.70;99.90
44277;DHT22;29973;43.742;1.236;2023-01-10T19:12:33;5.70;99.90
44277;DHT22;29973;43.742;1.236;2023-01-10T19:14:59;5.60;99.90
44277;DHT22;29973;43.742;1.236;2023-01-10T19:17:25;5.60;99.90
44277;DHT22;29973;43.742;1.236;2023-01-10T19:19:53;5.50;99.90
44277;DHT22;29973;43.742;1.236;2023-01-10T19:22:19;5.50;99.90
44277;DHT22;29973;43.742;1.236;2023-01-10T19:24:47;5.40;99.90
44277;DHT22;29973;43.742;1.236;2023-01-10T19:27:13;5.30;99.90
44277;DHT22;29973;43.742;1.236;2023-01-10T19:29:39;5.30;99.90
44277;DHT22;29973;43.742;1.236;2023-01-10T19:32:04;5.30;99.90
44277;DHT22;29973;43.742;1.236;2023-01-10T19:34:30;5.30;99.90
44277;DHT22;29973;43.742;1.236;2023-01-10T19:36:56;5.30;99.90
44277;DHT22;29973;43.742;1.236;2023-01-10T19:39:22;5.20;99.90
44277;DHT22;29973;43.742;1.236;2023-01-10T19:41:48;5.10;99.90
44277;DHT22;29973;43.742;1.236;2023-01-10T19:44:15;5.20;99.90
44277;DHT22;29973;43.742;1.236;2023-01-10T19:46:41;5.00;99.90
44277;DHT22;29973;43.742;1.236;2023-01-10T19:49:09;5.10;99.90
44277;DHT22;29973;43.742;1.236;2023-01-10T19:51:39;5.10;99.90
44277;DHT22;29973;43.742;1.236;2023-01-10T19:54:06;5.10;99.90
44277;DHT22;29973;43.742;1.236;2023-01-10T19:56:33;5.00;99.90
44277;DHT22;29973;43.742;1.236;2023-01-10T19:58:59;5.00;99.90
44277;DHT22;29973;43.742;1.236;2023-01-10T20:01:29;5.00;99.90
44277;DHT22;29973;43.742;1.236;2023-01-10T20:03:59;5.00;99.90
44277;DHT22;29973;43.742;1.236;2023-01-10T20:06:30;5.00;99.90
44277;DHT22;29973;43.742;1.236;2023-01-10T20:08:56;4.90;99.90
44277;DHT22;29973;43.742;1.236;2023-01-10T20:11:24;4.90;99.90
44277;DHT22;29973;43.742;1.236;2023-01-10T20:13:50;4.80;99.90
44277;DHT22;29973;43.742;1.236;2023-01-10T20:16:19;4.80;99.90
44277;DHT22;29973;43.742;1.236;2023-01-10T20:18:46;4.80;99.90
44277;DHT22;29973;43.742;1.236;2023-01-10T20:21:14;4.60;99.90
44277;DHT22;29973;43.742;1.236;2023-01-10T20:23:41;4.60;99.90
44277;DHT22;29973;43.742;1.236;2023-01-10T20:26:11;4.50;99.90
44277;DHT22;29973;43.742;1.236;2023-01-10T20:28:38;4.40;99.90
44277;DHT22;29973;43.742;1.236;2023-01-10T20:31:06;4.40;99.90
44277;DHT22;29973;43.742;1.236;2023-01-10T20:33:32;4.30;99.90
44277;DHT22;29973;43.742;1.236;2023-01-10T20:36:04;4.30;99.90
44277;DHT22;29973;43.742;1.236;2023-01-10T20:38:31;4.30;99.90
44277;DHT22;29973;43.742;1.236;2023-01-10T20:41:00;4.30;99.90
44277;DHT22;29973;43.742;1.236;2023-01-10T20:43:26;4.10;99.90
44277;DHT22;29973;43.742;1.236;2023-01-10T20:45:52;4.10;99.90
44277;DHT22;29973;43.742;1.236;2023-01-10T20:48:18;4.10;99.90
44277;DHT22;29973;43.742;1.236;2023-01-10T20:50:44;4.10;99.90
44277;DHT22;29973;43.742;1.236;2023-01-10T20:53:12;4.20;99.90
44277;DHT22;29973;43.742;1.236;2023-01-10T20:55:41;4.20;99.90
44277;DHT22;29973;43.742;1.236;2023-01-10T20:58:18;4.00;99.90
44277;DHT22;29973;43.742;1.236;2023-01-10T21:00:47;4.10;99.90
44277;DHT22;29973;43.742;1.236;2023-01-10T21:03:13;4.10;99.90
44277;DHT22;29973;43.742;1.236;2023-01-10T21:05:38;4.10;99.90
44277;DHT22;29973;43.742;1.236;2023-01-10T21:08:04;4.10;99.90
44277;DHT22;29973;43.742;1.236;2023-01-10T21:10:30;4.00;99.90
44277;DHT22;29973;43.742;1.236;2023-01-10T21:12:56;4.00;99.90
44277;DHT22;29973;43.742;1.236;2023-01-10T21:15:22;3.90;99.90
44277;DHT22;29973;43.742;1.236;2023-01-10T21:17:48;3.80;99.90
44277;DHT22;29973;43.742;1.236;2023-01-10T21:20:13;3.80;99.90
44277;DHT22;29973;43.742;1.236;2023-01-10T21:22:40;3.90;99.90
44277;DHT22;29973;43.742;1.236;2023-01-10T21:25:06;3.90;99.90
44277;DHT22;29973;43.742;1.236;2023-01-10T21:27:32;4.00;99.90
44277;DHT22;29973;43.742;1.236;2023-01-10T21:29:57;4.00;99.90
44277;DHT22;29973;43.742;1.236;2023-01-10T21:32:25;4.10;99.90
44277;DHT22;29973;43.742;1.236;2023-01-10T21:34:51;4.20;99.90
44277;DHT22;29973;43.742;1.236;2023-01-10T21:37:17;4.30;99.90
44277;DHT22;29973;43.742;1.236;2023-01-10T21:39:43;4.30;99.90
44277;DHT22;29973;43.742;1.236;2023-01-10T21:42:10;4.30;99.90
44277;DHT22;29973;43.742;1.236;2023-01-10T21:44:58;4.20;99.90
44277;DHT22;29973;43.742;1.236;2023-01-10T21:47:55;4.20;99.90
44277;DHT22;29973;43.742;1.236;2023-01-10T21:50:24;4.30;99.90
44277;DHT22;29973;43.742;1.236;2023-01-10T21:52:59;4.10;99.90
44277;DHT22;29973;43.742;1.236;2023-01-10T21:55:25;4.20;99.90
44277;DHT22;29973;43.742;1.236;2023-01-10T21:57:51;3.90;99.90
44277;DHT22;29973;43.742;1.236;2023-01-10T22:00:17;3.80;99.90
44277;DHT22;29973;43.742;1.236;2023-01-10T22:02:46;3.80;99.90
44277;DHT22;29973;43.742;1.236;2023-01-10T22:05:13;4.00;99.90
44277;DHT22;29973;43.742;1.236;2023-01-10T22:07:39;3.90;99.90
44277;DHT22;29973;43.742;1.236;2023-01-10T22:10:06;3.70;99.90
44277;DHT22;29973;43.742;1.236;2023-01-10T22:12:33;3.60;99.90
44277;DHT22;29973;43.742;1.236;2023-01-10T22:15:01;3.70;99.90
44277;DHT22;29973;43.742;1.236;2023-01-10T22:17:27;3.60;99.90
44277;DHT22;29973;43.742;1.236;2023-01-10T22:19:52;3.60;99.90
44277;DHT22;29973;43.742;1.236;2023-01-10T22:22:18;3.70;99.90
44277;DHT22;29973;43.742;1.236;2023-01-10T22:24:44;3.60;99.90
44277;DHT22;29973;43.742;1.236;2023-01-10T22:27:12;3.60;99.90
44277;DHT22;29973;43.742;1.236;2023-01-10T22:29:54;3.70;99.90
44277;DHT22;29973;43.742;1.236;2023-01-10T22:32:31;3.60;99.90
44277;DHT22;29973;43.742;1.236;2023-01-10T22:35:09;3.60;99.90
44277;DHT22;29973;43.742;1.236;2023-01-10T22:37:39;3.80;99.90
44277;DHT22;29973;43.742;1.236;2023-01-10T22:40:09;3.80;99.90
44277;DHT22;29973;43.742;1.236;2023-01-10T22:42:38;3.70;99.90
44277;DHT22;29973;43.742;1.236;2023-01-10T22:45:28;3.70;99.90
44277;DHT22;29973;43.742;1.236;2023-01-10T22:47:56;3.50;99.90
44277;DHT22;29973;43.742;1.236;2023-01-10T22:50:22;3.60;99.90
44277;DHT22;29973;43.742;1.236;2023-01-10T22:52:49;3.60;99.90
44277;DHT22;29973;43.742;1.236;2023-01-10T22:55:16;3.60;99.90
44277;DHT22;29973;43.742;1.236;2023-01-10T22:57:43;3.50;99.90
44277;DHT22;29973;43.742;1.236;2023-01-10T23:00:12;3.60;99.90
44277;DHT22;29973;43.742;1.236;2023-01-10T23:02:58;3.60;99.90